Time;durP1;ratioP1;P1;durP2;ratioP2;P2;SDS_P1;SDS_P2;PMS_P1;PMS_P2;Temp;Humidity;BMP_temperature;BMP_pressure;BME280_temperature;BME280_humidity;BME280_pressure;Samples;Min_cycle;Max_cycle;Signal;HPM_P1;HPM_P2
2023/06/30 00:00:11;;;;;;;4.30;2.45;;;;;;;26.32;38.53;99503.13;4362744;32;33885;-67
2023/06/30 00:02:40;;;;;;;5.10;2.70;;;;;;;26.31;38.50;99496.03;4363025;32;34176;-72
2023/06/30 00:05:09;;;;;;;4.60;2.60;;;;;;;26.31;38.51;99505.06;4362570;32;33671;-64
2023/06/30 00:07:37;;;;;;;4.07;2.50;;;;;;;26.30;38.50;99500.66;4362738;32;34817;-66
2023/06/30 00:10:06;;;;;;;4.32;2.45;;;;;;;26.29;38.49;99492.69;4357602;32;33926;-64
2023/06/30 00:12:33;;;;;;;4.35;2.58;;;;;;;26.29;38.47;99489.97;4362254;32;34845;-64
2023/06/30 00:15:01;;;;;;;4.22;2.42;;;;;;;26.28;38.45;99488.31;4362694;32;34480;-72
2023/06/30 00:17:30;;;;;;;4.90;2.40;;;;;;;26.26;38.43;99482.28;4362775;32;34057;-69
2023/06/30 00:19:58;;;;;;;4.85;2.42;;;;;;;26.28;38.41;99483.66;4362554;32;34889;-71
2023/06/30 00:22:27;;;;;;;6.83;2.90;;;;;;;26.26;38.41;99480.38;4362643;32;34250;-63
2023/06/30 00:24:55;;;;;;;4.05;2.53;;;;;;;26.26;38.37;99477.63;4362611;32;34253;-70
2023/06/30 00:27:23;;;;;;;3.90;2.47;;;;;;;26.25;38.40;99477.88;4359330;32;34868;-63
2023/06/30 00:29:51;;;;;;;3.37;2.40;;;;;;;26.25;38.42;99477.88;4362394;32;35027;-62
2023/06/30 00:32:20;;;;;;;4.07;2.15;;;;;;;26.23;38.44;99478.13;4362289;32;34251;-66
2023/06/30 00:34:47;;;;;;;3.47;2.25;;;;;;;26.22;38.43;99479.22;4355655;32;34248;-62
2023/06/30 00:37:15;;;;;;;5.15;2.30;;;;;;;26.22;38.47;99476.47;4362592;32;34346;-74
2023/06/30 00:39:43;;;;;;;4.55;2.47;;;;;;;26.22;38.45;99476.47;4362674;32;33670;-70
2023/06/30 00:42:10;;;;;;;3.83;2.55;;;;;;;26.22;38.42;99479.22;4362489;32;34934;-63
2023/06/30 00:44:38;;;;;;;4.05;2.40;;;;;;;26.22;38.42;99479.22;4362588;32;33317;-62
2023/06/30 00:47:05;;;;;;;3.58;2.35;;;;;;;26.21;38.44;99474.84;4362379;32;33932;-63
2023/06/30 00:49:33;;;;;;;4.75;2.35;;;;;;;26.20;38.46;99476.72;4362329;32;34812;-62
2023/06/30 00:52:01;;;;;;;4.65;2.55;;;;;;;26.19;38.49;99466.87;4356908;32;35204;-69
2023/06/30 00:54:28;;;;;;;3.50;2.17;;;;;;;26.19;38.46;99468.78;4348980;32;34919;-63
2023/06/30 00:56:59;;;;;;;6.12;2.53;;;;;;;26.18;38.43;99465.22;4362304;32;34606;-73
2023/06/30 00:59:26;;;;;;;5.68;2.60;;;;;;;26.17;38.38;99469.03;4362436;32;34769;-63
2023/06/30 01:02:01;;;;;;;6.03;2.25;;;;;;;26.19;38.36;99476.97;4362195;32;34226;-66
2023/06/30 01:04:53;;;;;;;7.00;2.47;;;;;;;26.17;38.33;99469.03;4359910;32;33150;-63
2023/06/30 01:07:30;;;;;;;3.92;2.25;;;;;;;26.20;38.32;99467.69;4359258;32;34432;-63
2023/06/30 01:10:20;;;;;;;4.72;2.40;;;;;;;26.16;38.27;99467.37;4362268;32;34648;-63
2023/06/30 01:12:48;;;;;;;5.68;2.60;;;;;;;26.18;38.25;99467.13;4362314;32;33807;-63
2023/06/30 01:15:15;;;;;;;6.72;2.53;;;;;;;26.14;38.25;99461.31;4362258;32;33686;-62
2023/06/30 01:17:48;;;;;;;3.70;2.35;;;;;;;26.14;38.30;99458.59;4362062;32;33778;-63
2023/06/30 01:20:16;;;;;;;3.45;2.10;;;;;;;26.11;38.37;99450.91;4358474;32;33708;-63
2023/06/30 01:23:24;;;;;;;4.20;2.22;;;;;;;26.12;38.33;99460.75;4360993;32;33705;-62
2023/06/30 01:25:51;;;;;;;3.95;2.30;;;;;;;26.15;38.31;99459.41;4361220;32;33736;-63
2023/06/30 01:28:19;;;;;;;5.37;2.45;;;;;;;26.11;38.42;99464.59;4358511;32;33801;-63
2023/06/30 01:30:46;;;;;;;4.53;2.33;;;;;;;26.10;38.34;99459.34;4355135;32;33639;-63
2023/06/30 01:33:16;;;;;;;4.22;2.53;;;;;;;26.11;38.31;99458.25;4360872;32;34670;-63
2023/06/30 01:35:44;;;;;;;4.90;2.55;;;;;;;26.10;38.30;99451.97;4362087;32;33565;-63
2023/06/30 01:38:11;;;;;;;3.72;2.15;;;;;;;26.09;38.30;99449.50;4362169;32;34921;-63
2023/06/30 01:40:39;;;;;;;3.28;2.15;;;;;;;26.09;38.25;99439.38;4362116;32;33490;-62
2023/06/30 01:43:07;;;;;;;4.80;2.35;;;;;;;26.09;38.30;99450.31;4356389;32;33955;-62
2023/06/30 01:45:35;;;;;;;5.07;2.45;;;;;;;26.08;38.24;99456.88;4360961;32;34283;-63
2023/06/30 01:48:03;;;;;;;4.50;2.25;;;;;;;26.08;38.20;99448.69;4356757;32;33834;-63
2023/06/30 01:50:31;;;;;;;4.55;2.50;;;;;;;26.08;38.18;99436.91;4360846;32;33759;-63
2023/06/30 01:52:59;;;;;;;6.20;2.95;;;;;;;26.07;38.19;99438.81;4356440;32;33601;-64
2023/06/30 01:55:27;;;;;;;4.70;2.60;;;;;;;26.08;38.21;99447.84;4361043;32;33289;-63
2023/06/30 01:57:54;;;;;;;4.93;2.80;;;;;;;26.05;38.25;99438.22;4362250;32;33475;-63
2023/06/30 02:00:22;;;;;;;3.75;2.62;;;;;;;26.04;38.23;99442.06;4362069;32;34100;-63
2023/06/30 02:02:49;;;;;;;5.97;2.70;;;;;;;26.04;38.19;99439.31;4361938;32;34892;-63
2023/06/30 02:05:17;;;;;;;4.25;2.25;;;;;;;26.04;38.17;99441.22;4358227;32;34100;-63
2023/06/30 02:07:45;;;;;;;4.07;2.40;;;;;;;26.03;38.21;99443.13;4362286;32;33729;-63
2023/06/30 02:10:12;;;;;;;5.12;2.20;;;;;;;26.03;38.20;99436.84;4361988;32;34814;-63
2023/06/30 02:12:40;;;;;;;4.85;2.35;;;;;;;26.02;38.18;99435.16;4361951;32;35059;-66
2023/06/30 02:15:08;;;;;;;5.53;2.60;;;;;;;26.01;38.17;99441.72;4361966;32;34702;-65
2023/06/30 02:17:36;;;;;;;3.87;2.42;;;;;;;26.01;38.16;99431.63;4361756;32;33897;-67
2023/06/30 02:20:06;;;;;;;3.85;2.10;;;;;;;26.01;38.09;99439.00;4362225;32;33954;-64
2023/06/30 02:22:34;;;;;;;3.33;2.05;;;;;;;25.99;38.12;99435.69;4359740;32;34364;-66
2023/06/30 02:25:01;;;;;;;4.12;2.55;;;;;;;26.00;38.13;99440.06;4361631;32;33565;-65
2023/06/30 02:27:29;;;;;;;4.95;2.42;;;;;;;25.99;38.11;99435.69;4361846;32;34698;-63
2023/06/30 02:30:06;;;;;;;4.07;2.22;;;;;;;25.98;38.10;99434.03;4361787;32;33980;-63
2023/06/30 02:32:38;;;;;;;6.07;2.55;;;;;;;25.99;38.02;99435.69;4361611;32;34258;-68
2023/06/30 02:35:07;;;;;;;4.57;2.70;;;;;;;25.99;37.99;99427.50;4361622;32;33583;-62
2023/06/30 02:37:35;;;;;;;4.37;2.10;;;;;;;25.97;37.98;99425.00;4361438;32;33963;-67
2023/06/30 02:40:04;;;;;;;4.85;2.62;;;;;;;25.96;38.01;99428.81;4361791;32;34504;-65
2023/06/30 02:42:32;;;;;;;4.05;2.15;;;;;;;25.97;38.00;99425.00;4361557;32;34288;-64
2023/06/30 02:44:59;;;;;;;7.32;2.65;;;;;;;25.97;37.99;99427.72;4355866;32;33746;-64
2023/06/30 02:47:27;;;;;;;6.37;2.60;;;;;;;25.95;38.08;99417.06;4361643;32;34015;-71
2023/06/30 02:49:55;;;;;;;3.00;2.05;;;;;;;25.95;38.07;99428.00;4361649;32;33782;-68
2023/06/30 02:52:23;;;;;;;11.38;2.45;;;;;;;25.95;38.09;99418.97;4361674;32;34131;-73
2023/06/30 02:54:51;;;;;;;4.12;2.50;;;;;;;25.95;38.03;99421.69;4360644;32;34234;-72
2023/06/30 02:57:19;;;;;;;6.37;2.50;;;;;;;25.94;37.96;99431.81;4361511;32;34119;-65
2023/06/30 02:59:47;;;;;;;4.72;2.55;;;;;;;25.94;38.00;99426.34;4361617;32;34800;-63
2023/06/30 03:02:14;;;;;;;3.85;2.35;;;;;;;25.94;37.95;99428.25;4361705;32;34214;-63
2023/06/30 03:04:43;;;;;;;2.97;1.98;;;;;;;25.93;37.95;99432.91;4353960;32;33445;-63
2023/06/30 03:07:11;;;;;;;4.47;1.90;;;;;;;25.92;37.96;99427.66;4360125;32;33658;-63
2023/06/30 03:09:39;;;;;;;4.12;2.47;;;;;;;25.92;38.03;99428.47;4360314;32;33187;-67
2023/06/30 03:12:08;;;;;;;4.25;2.20;;;;;;;25.92;38.03;99430.37;4361641;32;34883;-68
2023/06/30 03:14:35;;;;;;;4.30;2.35;;;;;;;25.90;38.00;99438.84;4361066;32;34255;-63
2023/06/30 03:17:03;;;;;;;5.80;2.58;;;;;;;25.91;37.92;99431.47;4361261;32;33943;-63
2023/06/30 03:19:31;;;;;;;5.60;2.35;;;;;;;25.89;38.01;99429.00;4361241;32;34668;-63
2023/06/30 03:21:59;;;;;;;3.92;2.30;;;;;;;25.89;38.01;99426.28;4361074;32;33758;-63
2023/06/30 03:24:26;;;;;;;5.20;2.47;;;;;;;25.89;38.05;99423.53;4361192;32;33611;-64
2023/06/30 03:26:54;;;;;;;5.50;2.33;;;;;;;25.88;38.12;99430.09;4361057;32;33905;-63
2023/06/30 03:29:23;;;;;;;3.72;2.28;;;;;;;25.89;38.02;99425.44;4358094;32;33668;-62
2023/06/30 03:31:50;;;;;;;4.12;2.25;;;;;;;25.88;37.99;99432.81;4360928;32;34061;-63
2023/06/30 03:34:18;;;;;;;8.73;2.42;;;;;;;25.88;37.97;99437.44;4361031;32;33383;-63
2023/06/30 03:36:45;;;;;;;3.65;2.30;;;;;;;25.87;38.04;99438.53;4360799;32;34642;-63
2023/06/30 03:39:14;;;;;;;4.50;2.10;;;;;;;25.87;38.00;99444.00;4361121;32;33914;-62
2023/06/30 03:41:45;;;;;;;4.78;2.30;;;;;;;25.87;37.94;99435.78;4361075;32;34379;-66
2023/06/30 03:44:13;;;;;;;5.45;2.30;;;;;;;25.86;38.00;99434.97;4361210;32;34442;-63
2023/06/30 03:46:41;;;;;;;3.47;2.20;;;;;;;25.87;38.03;99427.59;4360791;32;33773;-62
2023/06/30 03:49:09;;;;;;;6.15;2.35;;;;;;;25.87;37.85;99425.69;4360776;32;33565;-62
2023/06/30 03:51:36;;;;;;;4.15;2.15;;;;;;;25.87;37.85;99419.38;4360791;32;33833;-62
2023/06/30 03:54:04;;;;;;;4.37;2.20;;;;;;;25.86;37.85;99417.75;4360803;32;34278;-63
2023/06/30 03:56:34;;;;;;;4.53;2.08;;;;;;;25.86;37.81;99421.28;4353983;32;33949;-63
2023/06/30 03:59:02;;;;;;;4.28;2.33;;;;;;;25.85;37.78;99422.37;4346163;33;34166;-63
2023/06/30 04:01:33;;;;;;;4.03;2.20;;;;;;;25.86;37.77;99423.22;4345836;33;34078;-63
2023/06/30 04:04:02;;;;;;;5.75;2.47;;;;;;;25.86;37.84;99423.22;4345741;33;33600;-65
2023/06/30 04:06:33;;;;;;;4.85;2.30;;;;;;;25.85;37.94;99430.59;4347934;33;33848;-63
2023/06/30 04:09:00;;;;;;;6.43;2.35;;;;;;;25.86;37.96;99428.69;4347898;33;34033;-66
2023/06/30 04:11:28;;;;;;;3.75;2.30;;;;;;;25.85;37.98;99419.66;4347556;33;34228;-63
2023/06/30 04:13:57;;;;;;;4.00;2.00;;;;;;;25.84;38.01;99420.75;4347884;33;34623;-66
2023/06/30 04:16:25;;;;;;;4.00;2.20;;;;;;;25.82;38.04;99414.69;4347806;33;33780;-70
2023/06/30 04:18:53;;;;;;;4.25;2.12;;;;;;;25.84;38.06;99414.44;4347737;33;33919;-66
2023/06/30 04:21:20;;;;;;;4.30;2.30;;;;;;;25.82;38.05;99417.41;4347788;33;34055;-72
2023/06/30 04:23:48;;;;;;;4.00;2.20;;;;;;;25.83;38.08;99418.22;4347831;33;34452;-69
2023/06/30 04:26:18;;;;;;;4.90;2.50;;;;;;;25.82;38.10;99422.06;4347587;33;33715;-64
2023/06/30 04:28:46;;;;;;;3.80;2.15;;;;;;;25.82;38.14;99422.06;4348011;33;34034;-68
2023/06/30 04:31:13;;;;;;;4.10;2.40;;;;;;;25.82;38.20;99419.31;4347680;33;34835;-66
2023/06/30 04:33:41;;;;;;;5.25;2.17;;;;;;;25.84;38.09;99428.13;4347629;33;34037;-63
2023/06/30 04:36:09;;;;;;;3.70;1.92;;;;;;;25.83;38.08;99429.16;4348006;33;34056;-65
2023/06/30 04:38:36;;;;;;;5.72;2.50;;;;;;;25.83;38.04;99430.00;4347744;33;34068;-64
2023/06/30 04:41:04;;;;;;;5.25;2.03;;;;;;;25.84;38.05;99422.66;4347693;33;35554;-63
2023/06/30 04:43:32;;;;;;;3.97;2.33;;;;;;;25.84;38.07;99414.44;4347877;33;34577;-66
2023/06/30 04:46:00;;;;;;;3.87;2.20;;;;;;;25.84;38.09;99414.44;4347435;33;34544;-70
2023/06/30 04:48:28;;;;;;;3.70;2.15;;;;;;;25.85;38.10;99416.09;4347588;33;35461;-72
2023/06/30 04:50:56;;;;;;;3.67;2.22;;;;;;;25.84;38.08;99412.53;4347788;33;33909;-64
2023/06/30 04:53:24;;;;;;;7.85;2.40;;;;;;;25.85;38.12;99416.91;4347400;33;33878;-72
2023/06/30 04:55:52;;;;;;;4.82;2.55;;;;;;;25.85;38.18;99416.09;4343578;32;33992;-66
2023/06/30 04:58:20;;;;;;;5.93;2.47;;;;;;;25.85;38.20;99407.91;4362505;32;34801;-72
2023/06/30 05:00:47;;;;;;;5.72;2.30;;;;;;;25.86;38.25;99407.63;4362215;32;34255;-63
2023/06/30 05:03:15;;;;;;;6.15;2.47;;;;;;;25.87;38.28;99408.47;4362317;32;34819;-69
2023/06/30 05:05:42;;;;;;;4.62;2.50;;;;;;;25.86;38.33;99404.91;4362552;32;33601;-70
2023/06/30 05:08:10;;;;;;;5.00;2.50;;;;;;;25.86;38.46;99404.91;4362230;32;32551;-72
2023/06/30 05:10:38;;;;;;;4.78;2.47;;;;;;;25.87;38.49;99400.25;4362225;32;34091;-72
2023/06/30 05:13:06;;;;;;;5.68;2.67;;;;;;;25.88;38.51;99407.37;4357325;32;34368;-72
2023/06/30 05:15:33;;;;;;;7.37;2.62;;;;;;;25.88;38.54;99404.63;4360896;32;33970;-70
2023/06/30 05:18:01;;;;;;;4.60;2.30;;;;;;;25.87;38.60;99401.06;4356057;32;33885;-70
2023/06/30 05:20:29;;;;;;;5.22;2.85;;;;;;;25.88;38.65;99404.63;4362506;32;34931;-72
2023/06/30 05:22:56;;;;;;;4.85;2.53;;;;;;;25.89;38.68;99404.41;4362108;32;34473;-71
2023/06/30 05:25:24;;;;;;;5.22;2.87;;;;;;;25.89;38.72;99403.59;4362229;32;34121;-72
2023/06/30 05:27:51;;;;;;;5.78;2.65;;;;;;;25.90;38.78;99402.50;4362204;32;33504;-72
2023/06/30 05:30:19;;;;;;;5.03;2.70;;;;;;;25.91;38.82;99401.41;4362053;32;35026;-72
2023/06/30 05:32:47;;;;;;;5.55;2.50;;;;;;;25.89;38.84;99401.66;4362113;32;33747;-68
2023/06/30 05:35:14;;;;;;;5.43;2.65;;;;;;;25.90;38.89;99403.31;4361556;32;34559;-70
2023/06/30 05:37:41;;;;;;;4.43;2.20;;;;;;;25.91;38.91;99409.59;4362020;32;34889;-63
2023/06/30 05:40:10;;;;;;;4.95;2.50;;;;;;;25.91;38.98;99398.69;4362056;32;33722;-70
2023/06/30 05:42:37;;;;;;;5.57;2.50;;;;;;;25.92;39.04;99409.34;4361793;32;33587;-69
2023/06/30 05:45:05;;;;;;;5.68;3.00;;;;;;;25.93;39.16;99408.28;4361946;32;33616;-69
2023/06/30 05:47:33;;;;;;;5.65;2.90;;;;;;;25.93;39.22;99402.81;4361949;32;33899;-73
2023/06/30 05:50:00;;;;;;;6.87;2.75;;;;;;;25.94;39.25;99409.13;4356473;32;33089;-70
2023/06/30 05:52:28;;;;;;;4.97;2.80;;;;;;;25.94;39.23;99409.94;4362053;32;34499;-71
2023/06/30 05:54:56;;;;;;;4.43;2.35;;;;;;;25.95;39.28;99406.13;4362145;32;33969;-70
2023/06/30 05:57:23;;;;;;;5.05;2.65;;;;;;;25.97;39.26;99415.97;4361815;32;34706;-73
2023/06/30 05:59:51;;;;;;;6.25;3.00;;;;;;;25.98;39.24;99414.91;4361768;32;34195;-72
2023/06/30 06:02:23;;;;;;;4.70;2.65;;;;;;;25.97;39.27;99408.59;4358650;32;32853;-70
2023/06/30 06:04:51;;;;;;;5.15;2.60;;;;;;;25.97;39.44;99411.31;4362056;32;34671;-69
2023/06/30 06:07:19;;;;;;;5.05;2.62;;;;;;;25.99;39.49;99414.66;4361819;32;35059;-69
2023/06/30 06:09:47;;;;;;;6.65;2.80;;;;;;;26.00;39.54;99413.56;4362243;32;34363;-62
2023/06/30 06:12:15;;;;;;;5.60;2.80;;;;;;;26.00;39.58;99407.28;4361757;32;33866;-63
2023/06/30 06:14:43;;;;;;;5.60;2.92;;;;;;;26.01;39.60;99411.66;4361891;32;34362;-63
2023/06/30 06:17:10;;;;;;;6.55;2.92;;;;;;;26.02;39.63;99411.41;4361892;32;33728;-66
2023/06/30 06:19:38;;;;;;;6.20;2.50;;;;;;;26.02;39.67;99408.69;4361808;32;34279;-70
2023/06/30 06:22:05;;;;;;;5.97;2.65;;;;;;;26.03;39.72;99410.34;4361733;32;34463;-73
2023/06/30 06:24:33;;;;;;;8.30;2.85;;;;;;;26.04;39.71;99408.44;4361732;32;33837;-66
2023/06/30 06:27:01;;;;;;;7.85;2.97;;;;;;;26.03;39.83;99407.59;4361756;32;33994;-67
2023/06/30 06:29:28;;;;;;;8.10;2.80;;;;;;;26.04;39.85;99409.25;4361778;32;34109;-66
2023/06/30 06:31:56;;;;;;;7.50;2.80;;;;;;;26.04;39.85;99402.94;4361656;32;33567;-66
2023/06/30 06:34:24;;;;;;;11.25;2.85;;;;;;;26.04;39.76;99400.22;4361510;32;33915;-66
2023/06/30 06:36:51;;;;;;;7.57;2.80;;;;;;;26.04;39.90;99405.69;4361704;32;33892;-66
2023/06/30 06:39:20;;;;;;;9.32;3.12;;;;;;;26.04;40.01;99403.78;4361530;32;34297;-67
2023/06/30 06:41:49;;;;;;;9.40;3.30;;;;;;;26.06;40.01;99398.03;4361418;32;33568;-66
2023/06/30 06:44:16;;;;;;;6.35;2.72;;;;;;;26.06;40.00;99406.25;4357732;32;33884;-65
2023/06/30 06:46:44;;;;;;;15.98;2.70;;;;;;;26.06;39.91;99398.03;4359029;32;35002;-65
2023/06/30 06:49:12;;;;;;;6.30;2.62;;;;;;;26.06;39.83;99401.59;4354696;32;34313;-65
2023/06/30 06:51:39;;;;;;;7.50;2.78;;;;;;;26.06;39.87;99400.78;4352469;32;33224;-65
2023/06/30 06:54:07;;;;;;;5.37;2.90;;;;;;;26.05;39.87;99399.97;4359974;32;33228;-65
2023/06/30 06:56:34;;;;;;;12.35;3.17;;;;;;;26.06;39.89;99404.34;4351145;32;32971;-65
2023/06/30 06:59:02;;;;;;;5.47;2.80;;;;;;;26.07;39.87;99402.47;4345498;33;33964;-65
2023/06/30 07:01:30;;;;;;;8.05;2.85;;;;;;;26.06;39.92;99396.12;4345989;33;33489;-65
2023/06/30 07:03:58;;;;;;;6.07;2.22;;;;;;;26.05;39.85;99402.69;4346511;33;33441;-66
2023/06/30 07:06:25;;;;;;;4.47;2.42;;;;;;;26.05;39.94;99399.13;4346826;33;33703;-66
2023/06/30 07:08:53;;;;;;;7.85;2.70;;;;;;;26.07;39.92;99395.06;4346756;33;33874;-65
2023/06/30 07:11:21;;;;;;;7.75;2.42;;;;;;;26.07;39.94;99397.81;4346391;33;33829;-65
2023/06/30 07:13:48;;;;;;;8.43;2.75;;;;;;;26.08;39.94;99398.63;4346266;33;33860;-65
2023/06/30 07:16:17;;;;;;;6.22;2.75;;;;;;;26.08;39.92;99404.09;4347626;32;33987;-66
2023/06/30 07:18:45;;;;;;;;;;;;;;;26.09;39.91;99398.37;4353192;32;33851;-67
2023/06/30 07:21:13;;;;;;;5.82;2.72;;;;;;;26.20;39.71;99402.06;4353993;32;33620;-65
2023/06/30 07:23:40;;;;;;;5.55;2.47;;;;;;;26.12;39.86;99402.53;4352057;32;33855;-65
2023/06/30 07:26:09;;;;;;;5.45;2.72;;;;;;;26.10;39.92;99391.81;4352897;32;33629;-65
2023/06/30 07:28:37;;;;;;;7.40;3.00;;;;;;;26.11;39.96;99392.63;4352133;32;33989;-66
2023/06/30 07:31:04;;;;;;;4.65;2.22;;;;;;;26.11;40.00;99384.44;4349489;32;33573;-64
2023/06/30 07:33:32;;;;;;;6.35;2.97;;;;;;;26.11;40.00;99396.22;4345819;33;33890;-72
2023/06/30 07:36:00;;;;;;;7.53;2.87;;;;;;;26.15;40.18;99388.31;4346283;33;33912;-72
2023/06/30 07:38:27;;;;;;;5.15;3.08;;;;;;;26.14;40.22;99390.22;4346233;33;33642;-68
2023/06/30 07:40:55;;;;;;;5.90;3.08;;;;;;;26.15;40.24;99391.06;4347148;33;33745;-70
2023/06/30 07:43:24;;;;;;;5.93;2.83;;;;;;;26.17;40.23;99386.19;4347824;33;34785;-65
2023/06/30 07:45:51;;;;;;;6.75;2.83;;;;;;;26.18;40.21;99387.81;4344278;32;33817;-70
2023/06/30 07:48:20;;;;;;;4.82;2.60;;;;;;;26.18;40.20;99383.19;4361129;32;33968;-66
2023/06/30 07:50:47;;;;;;;5.68;2.80;;;;;;;26.19;40.22;99384.81;4367965;32;34276;-72
2023/06/30 07:53:35;;;;;;;8.50;2.80;;;;;;;26.20;40.22;99386.47;4369210;32;33948;-72
2023/06/30 07:56:05;;;;;;;6.05;2.47;;;;;;;26.20;40.20;99389.19;4363299;32;33985;-72
2023/06/30 07:58:32;;;;;;;5.53;2.75;;;;;;;26.22;40.19;99388.16;4362734;32;34855;-73
2023/06/30 08:01:00;;;;;;;4.85;2.60;;;;;;;26.22;40.22;99382.69;4362604;32;33416;-71
2023/06/30 08:03:28;;;;;;;5.28;3.05;;;;;;;26.23;40.27;99376.13;4362733;32;33953;-72
2023/06/30 08:05:57;;;;;;;6.28;2.58;;;;;;;26.24;40.24;99383.22;4348118;32;34149;-72
2023/06/30 08:08:25;;;;;;;7.93;2.95;;;;;;;26.23;40.26;99371.47;4347869;33;34341;-71
2023/06/30 08:10:53;;;;;;;5.70;2.87;;;;;;;26.25;40.25;99379.41;4347970;33;33609;-70
2023/06/30 08:13:22;;;;;;;7.93;2.97;;;;;;;26.24;40.29;99377.75;4347931;33;34070;-72
2023/06/30 08:15:50;;;;;;;6.35;3.10;;;;;;;26.25;40.35;99372.03;4347819;33;33921;-70
2023/06/30 08:18:18;;;;;;;7.05;2.90;;;;;;;26.27;40.29;99371.78;4344050;33;34283;-70
2023/06/30 08:21:01;;;;;;;6.65;2.78;;;;;;;26.28;40.22;99367.97;4347748;33;32908;-70
2023/06/30 08:23:29;;;;;;;5.95;2.60;;;;;;;26.28;40.12;99370.72;4347791;33;33800;-72
2023/06/30 08:25:56;;;;;;;6.70;2.75;;;;;;;26.28;40.12;99367.97;4347726;33;34808;-72
2023/06/30 08:28:24;;;;;;;5.47;3.00;;;;;;;26.29;40.12;99364.97;4347672;33;33843;-73
2023/06/30 08:30:51;;;;;;;5.53;2.50;;;;;;;26.33;40.15;99354.34;4346762;33;33626;-70
2023/06/30 08:33:25;;;;;;;6.53;3.40;;;;;;;26.32;39.96;99360.91;4347692;33;33769;-72
2023/06/30 08:36:01;;;;;;;4.37;2.58;;;;;;;26.32;39.94;99371.84;4347589;33;34159;-70
2023/06/30 08:38:29;;;;;;;5.40;2.83;;;;;;;26.33;39.88;99366.13;4347559;33;34225;-72
2023/06/30 08:40:57;;;;;;;9.95;3.45;;;;;;;26.33;39.98;99370.75;4341564;33;33452;-73
2023/06/30 08:43:25;;;;;;;7.97;2.80;;;;;;;26.38;39.98;99366.16;4361227;32;33870;-73
2023/06/30 08:45:54;;;;;;;7.07;3.20;;;;;;;26.39;40.27;99367.84;4356060;32;34016;-71
2023/06/30 08:48:21;;;;;;;10.95;2.85;;;;;;;26.39;40.22;99365.12;4361109;32;33712;-72
2023/06/30 08:50:49;;;;;;;5.35;3.15;;;;;;;26.40;40.27;99365.94;4362421;32;34043;-73
2023/06/30 08:53:17;;;;;;;8.70;2.90;;;;;;;26.40;40.24;99361.28;4358466;32;34667;-66
2023/06/30 08:55:48;;;;;;;8.57;3.00;;;;;;;26.41;40.27;99362.94;4361164;32;34438;-74
2023/06/30 08:58:16;;;;;;;7.82;2.87;;;;;;;26.40;40.24;99365.94;4360284;32;34156;-71
2023/06/30 09:00:55;;;;;;;5.68;2.78;;;;;;;26.43;40.19;99368.16;4361025;32;34386;-70
2023/06/30 09:03:26;;;;;;;6.80;3.00;;;;;;;26.42;40.19;99358.28;4359240;32;33176;-73
2023/06/30 09:05:55;;;;;;;8.20;3.22;;;;;;;26.43;40.15;99352.56;4362163;32;33929;-73
2023/06/30 09:08:23;;;;;;;7.80;2.78;;;;;;;26.44;40.15;99353.44;4362365;32;34151;-71
2023/06/30 09:10:51;;;;;;;6.03;3.05;;;;;;;26.45;40.07;99344.13;4362273;32;34321;-67
2023/06/30 09:13:20;;;;;;;5.35;3.08;;;;;;;26.44;40.04;99343.31;4346249;32;34722;-68
2023/06/30 09:15:48;;;;;;;5.55;2.62;;;;;;;26.46;40.02;99340.31;4354976;32;34033;-69
2023/06/30 09:18:16;;;;;;;5.25;2.90;;;;;;;26.48;40.01;99337.31;4336800;32;33347;-67
2023/06/30 09:20:43;;;;;;;5.57;2.62;;;;;;;26.47;40.07;99347.41;4346478;32;33327;-67
2023/06/30 09:23:11;;;;;;;7.18;2.78;;;;;;;26.48;40.03;99346.34;4356331;32;33958;-73
2023/06/30 09:25:41;;;;;;;5.57;2.92;;;;;;;26.49;40.01;99345.28;4358406;32;35039;-74
2023/06/30 09:28:11;;;;;;;6.50;2.65;;;;;;;26.48;40.05;99343.59;4361882;32;34058;-67
2023/06/30 09:30:45;;;;;;;6.25;2.95;;;;;;;26.49;39.99;99334.34;4360641;32;33644;-69
2023/06/30 09:33:14;;;;;;;5.10;2.50;;;;;;;26.53;39.96;99334.62;4357810;32;34639;-71
2023/06/30 09:35:44;;;;;;;5.77;2.83;;;;;;;26.52;39.96;99330.22;4361219;32;33936;-70
2023/06/30 09:38:12;;;;;;;;;;;;;;;26.53;39.98;99316.28;4357333;32;34027;-72
2023/06/30 09:40:47;;;;;;;6.80;2.80;;;;;;;26.60;39.82;99321.56;4345691;32;33370;-67
2023/06/30 09:43:19;;;;;;;6.70;2.90;;;;;;;26.55;39.94;99325.06;4350762;32;33732;-68
2023/06/30 09:45:53;;;;;;;6.62;2.78;;;;;;;26.52;40.03;99322.84;4359553;32;34745;-69
2023/06/30 09:48:29;;;;;;;4.22;2.50;;;;;;;26.54;40.06;99317.97;4362015;32;33736;-67
2023/06/30 09:50:57;;;;;;;7.32;2.75;;;;;;;26.53;40.06;99313.56;4354959;32;33644;-65
2023/06/30 09:53:25;;;;;;;4.68;2.62;;;;;;;26.53;40.12;99316.28;4352443;32;34738;-71
2023/06/30 09:55:52;;;;;;;7.60;2.80;;;;;;;26.55;40.16;99313.31;4360822;32;33867;-68
2023/06/30 09:58:20;;;;;;;10.52;3.60;;;;;;;26.55;40.16;99319.59;4345571;32;34074;-65
2023/06/30 10:00:49;;;;;;;7.85;2.78;;;;;;;26.54;40.17;99325.34;4354169;32;32555;-65
2023/06/30 10:03:18;;;;;;;6.50;2.60;;;;;;;26.55;40.12;99314.13;4356538;32;33903;-66
2023/06/30 10:05:48;;;;;;;7.18;2.87;;;;;;;26.56;40.31;99324.00;4351057;32;34720;-73
2023/06/30 10:08:16;;;;;;;10.10;2.87;;;;;;;26.57;40.40;99319.34;4348715;32;32781;-65
2023/06/30 10:10:44;;;;;;;5.80;2.58;;;;;;;26.57;40.47;99328.38;4352027;32;33150;-65
2023/06/30 10:13:12;;;;;;;6.03;2.90;;;;;;;26.58;40.52;99321.84;4346968;33;34671;-66
2023/06/30 10:15:40;;;;;;;6.55;2.33;;;;;;;26.60;40.55;99316.91;4358775;32;34671;-65
2023/06/30 10:18:10;;;;;;;9.20;2.47;;;;;;;26.61;40.40;99324.03;4354758;32;34188;-66
2023/06/30 10:20:38;;;;;;;9.02;2.85;;;;;;;26.64;40.29;99314.50;4360759;32;34469;-67
2023/06/30 10:23:19;;;;;;;9.73;2.70;;;;;;;26.64;40.20;99309.03;4361283;32;33336;-66
2023/06/30 10:25:47;;;;;;;7.15;3.67;;;;;;;26.64;40.28;99318.06;4340803;32;33843;-66
2023/06/30 10:28:16;;;;;;;6.53;2.90;;;;;;;26.65;40.32;99316.97;4359273;32;33868;-69
2023/06/30 10:30:44;;;;;;;4.15;2.55;;;;;;;26.66;40.35;99315.03;4359830;32;33739;-65
2023/06/30 10:33:12;;;;;;;5.62;2.62;;;;;;;26.65;40.28;99316.13;4359771;32;34865;-65
2023/06/30 10:35:40;;;;;;;5.55;2.60;;;;;;;26.63;40.30;99310.94;4359782;32;33717;-69
2023/06/30 10:38:07;;;;;;;10.75;2.70;;;;;;;26.64;40.23;99309.84;4353113;32;34298;-72
2023/06/30 10:40:35;;;;;;;7.25;3.20;;;;;;;26.66;40.13;99306.84;4359638;32;33695;-72
2023/06/30 10:43:05;;;;;;;4.57;2.50;;;;;;;26.65;40.36;99310.66;4355129;32;34006;-72
2023/06/30 10:45:55;;;;;;;6.07;2.95;;;;;;;26.65;40.35;99305.19;4341875;33;32926;-72
2023/06/30 10:48:23;;;;;;;5.60;2.60;;;;;;;26.66;40.38;99309.56;4343480;33;33745;-67
2023/06/30 10:50:51;;;;;;;5.85;2.42;;;;;;;26.68;40.32;99300.03;4334954;32;33576;-65
2023/06/30 10:53:18;;;;;;;8.27;3.03;;;;;;;26.68;40.25;99308.25;4346762;32;35228;-67
2023/06/30 10:55:47;;;;;;;5.47;2.60;;;;;;;26.68;40.29;99310.16;4352183;32;33523;-64
2023/06/30 10:58:25;;;;;;;5.72;2.47;;;;;;;26.71;40.15;99293.19;4359909;32;34826;-65
2023/06/30 11:01:05;;;;;;;5.22;2.37;;;;;;;26.70;40.10;99303.31;4360159;32;33451;-66
2023/06/30 11:04:00;;;;;;;7.22;2.58;;;;;;;26.72;40.07;99297.59;4360488;32;34533;-68
2023/06/30 11:06:31;;;;;;;8.10;2.60;;;;;;;26.73;40.01;99295.69;4360256;32;34178;-72
2023/06/30 11:09:03;;;;;;;4.07;2.15;;;;;;;26.68;40.09;99285.53;4343290;32;33538;-69
2023/06/30 11:11:50;;;;;;;5.15;2.62;;;;;;;26.69;40.03;99285.25;4360300;32;34245;-65
2023/06/30 11:14:30;;;;;;;4.65;2.03;;;;;;;26.72;40.02;99286.66;4359167;32;33970;-71
2023/06/30 11:17:02;;;;;;;4.60;2.28;;;;;;;26.71;39.98;99274.03;4354400;32;33992;-71
2023/06/30 11:19:30;;;;;;;7.32;2.58;;;;;;;26.67;40.06;99281.97;4360609;32;33905;-66
2023/06/30 11:22:29;;;;;;;6.20;2.42;;;;;;;26.70;39.82;99269.66;4359510;32;33657;-69
2023/06/30 11:24:58;;;;;;;7.55;2.15;;;;;;;26.75;39.75;99266.97;4356101;32;33487;-69
2023/06/30 11:27:28;;;;;;;7.50;2.55;;;;;;;26.74;39.72;99264.50;4356450;32;34412;-71
2023/06/30 11:29:55;;;;;;;4.87;2.12;;;;;;;26.71;39.84;99263.91;4354314;32;34829;-69
2023/06/30 11:32:29;;;;;;;4.78;2.62;;;;;;;26.73;39.85;99258.19;4360842;32;34365;-66
2023/06/30 11:34:57;;;;;;;6.22;3.25;;;;;;;26.74;39.88;99253.53;4360856;32;33791;-65
2023/06/30 11:37:25;;;;;;;6.93;2.42;;;;;;;26.75;39.86;99260.66;4345834;32;33986;-69
2023/06/30 11:39:54;;;;;;;4.65;2.30;;;;;;;26.73;39.89;99252.72;4360835;32;34446;-65
2023/06/30 11:42:22;;;;;;;5.05;2.40;;;;;;;26.75;39.89;99249.72;4360839;32;34510;-64